createdAt,value
2018-11-13T00:01:34.948Z,80.77
2018-11-13T00:04:06.001Z,77.40
2018-11-13T00:06:36.355Z,80.30
2018-11-13T00:09:09.137Z,76.13
2018-11-13T00:11:39.992Z,78.60
2018-11-13T00:14:10.666Z,80.33
2018-11-13T00:16:41.480Z,76.77
2018-11-13T00:19:12.415Z,82.40
2018-11-13T00:21:43.146Z,75.90
2018-11-13T00:24:14.454Z,76.07
2018-11-13T00:26:46.044Z,74.03
2018-11-13T00:29:16.198Z,79.97
2018-11-13T00:31:46.842Z,77.27
2018-11-13T00:34:17.429Z,78.97
2018-11-13T00:36:48.374Z,76.40
2018-11-13T00:39:19.435Z,78.07
2018-11-13T00:41:49.155Z,75.97
2018-11-13T00:44:19.818Z,75.17
2018-11-13T00:46:50.725Z,78.37
2018-11-13T00:49:21.569Z,78.60
2018-11-13T00:51:52.381Z,72.87
2018-11-13T00:54:23.272Z,82.67
2018-11-13T00:56:53.961Z,87.03
2018-11-13T00:59:25.079Z,80.53
2018-11-13T01:01:56.405Z,79.13
2018-11-13T01:04:27.196Z,83.10
2018-11-13T01:06:58.233Z,79.37
2018-11-13T01:09:29.115Z,86.43
2018-11-13T01:12:00.093Z,74.57
2018-11-13T01:14:30.599Z,83.47
2018-11-13T01:17:01.229Z,87.17
2018-11-13T01:19:32.150Z,78.93
2018-11-13T01:22:02.426Z,83.17
2018-11-13T01:24:33.740Z,75.03
2018-11-13T01:27:04.721Z,80.93
2018-11-13T01:29:35.200Z,82.33
2018-11-13T01:32:06.076Z,78.30
2018-11-13T01:34:36.870Z,83.80
2018-11-13T01:37:08.675Z,80.53
2018-11-13T01:39:38.595Z,83.90
2018-11-13T01:42:09.089Z,83.97
2018-11-13T01:44:39.132Z,82.30
2018-11-13T01:47:09.784Z,80.63
2018-11-13T01:49:40.657Z,80.93
2018-11-13T01:52:11.740Z,79.97
2018-11-13T01:54:41.687Z,75.77
2018-11-13T01:57:12.757Z,77.90
2018-11-13T01:59:43.509Z,82.53
2018-11-13T02:02:14.429Z,77.43
2018-11-13T02:04:44.415Z,94.07
2018-11-13T02:07:15.225Z,77.37
2018-11-13T02:09:46.048Z,78.83
2018-11-13T02:12:17.073Z,80.47
2018-11-13T02:14:48.132Z,89.07
2018-11-13T02:17:19.095Z,76.17
2018-11-13T02:19:49.949Z,83.37
2018-11-13T02:22:21.122Z,78.43
2018-11-13T02:24:52.033Z,79.83
2018-11-13T02:27:22.938Z,72.97
2018-11-13T02:29:54.226Z,74.50
2018-11-13T02:32:25.082Z,82.03
2018-11-13T02:34:55.528Z,76.10
2018-11-13T02:37:26.371Z,68.10
2018-11-13T02:39:57.125Z,69.37
2018-11-13T02:42:27.009Z,65.60
2018-11-13T02:44:58.049Z,65.67
2018-11-13T02:47:28.760Z,60.93
2018-11-13T02:49:59.660Z,67.47
2018-11-13T02:52:29.687Z,61.80
2018-11-13T02:55:00.532Z,63.43
2018-11-13T02:57:31.227Z,62.80
2018-11-13T03:00:01.743Z,62.67
2018-11-13T03:02:32.431Z,63.03
2018-11-13T03:05:04.020Z,62.80
2018-11-13T03:07:34.908Z,68.50
2018-11-13T03:10:06.174Z,63.73
2018-11-13T03:12:36.134Z,62.47
2018-11-13T03:15:06.944Z,67.50
2018-11-13T03:17:38.164Z,67.00
2018-11-13T03:20:10.582Z,65.93
2018-11-13T03:22:41.421Z,65.27
2018-11-13T03:25:14.552Z,75.20
2018-11-13T03:27:45.213Z,69.33
2018-11-13T03:30:20.654Z,72.00
2018-11-13T03:32:51.683Z,69.10
2018-11-13T03:35:23.325Z,71.67
2018-11-13T03:37:54.168Z,72.97
2018-11-13T03:40:25.170Z,68.87
2018-11-13T03:42:56.266Z,69.70
2018-11-13T03:45:26.669Z,72.07
2018-11-13T03:47:57.596Z,80.13
2018-11-13T03:50:28.510Z,73.70
2018-11-13T03:52:59.333Z,70.07
2018-11-13T03:55:30.258Z,67.17
2018-11-13T03:58:01.049Z,68.80
2018-11-13T04:00:31.705Z,72.60
2018-11-13T04:03:02.921Z,72.43
2018-11-13T04:05:33.405Z,60.47
2018-11-13T04:08:04.599Z,62.60
2018-11-13T04:10:35.251Z,59.57
2018-11-13T04:13:06.859Z,60.57
2018-11-13T04:15:37.706Z,64.53
2018-11-13T04:18:09.681Z,58.97
2018-11-13T04:20:42.039Z,59.53
2018-11-13T04:23:12.208Z,57.87
2018-11-13T04:25:43.042Z,57.73
2018-11-13T04:28:14.007Z,58.33
2018-11-13T04:30:45.151Z,55.83
2018-11-13T04:33:16.792Z,60.13
2018-11-13T04:35:48.055Z,61.03
2018-11-13T04:38:19.866Z,65.73
2018-11-13T04:40:51.005Z,66.13
2018-11-13T04:43:22.027Z,69.73
2018-11-13T04:45:53.296Z,73.00
2018-11-13T04:48:24.301Z,88.80
2018-11-13T04:50:55.593Z,76.57
2018-11-13T04:53:27.258Z,82.37
2018-11-13T04:56:00.815Z,78.10
2018-11-13T04:58:32.031Z,80.97
2018-11-13T05:01:02.081Z,79.00
2018-11-13T05:03:32.692Z,72.90
2018-11-13T05:06:03.697Z,76.43
2018-11-13T05:08:35.182Z,74.33
2018-11-13T05:11:05.190Z,76.17
2018-11-13T05:13:35.877Z,70.50
2018-11-13T05:16:07.322Z,71.17
2018-11-13T05:18:38.623Z,71.13
2018-11-13T05:21:09.421Z,65.57
2018-11-13T05:23:40.088Z,68.60
2018-11-13T05:26:11.123Z,64.43
2018-11-13T05:28:41.813Z,64.00
2018-11-13T05:31:12.750Z,67.73
2018-11-13T05:33:43.787Z,65.67
2018-11-13T05:36:14.567Z,65.60
2018-11-13T05:38:46.179Z,64.30
2018-11-13T05:41:16.524Z,65.83
2018-11-13T05:43:47.147Z,60.73
2018-11-13T05:46:18.118Z,67.67
2018-11-13T05:48:48.860Z,63.50
2018-11-13T05:51:19.150Z,65.20
2018-11-13T05:53:50.857Z,62.03
2018-11-13T05:56:21.835Z,65.73
2018-11-13T05:58:52.513Z,61.03
2018-11-13T06:01:23.469Z,61.70
2018-11-13T06:03:54.277Z,66.60
2018-11-13T06:06:25.013Z,64.93
2018-11-13T06:08:55.476Z,61.97
2018-11-13T06:11:26.388Z,68.20
2018-11-13T06:13:57.414Z,69.70
2018-11-13T06:16:28.219Z,67.20
2018-11-13T06:18:59.269Z,78.90
2018-11-13T06:21:30.424Z,69.50
2018-11-13T06:24:01.356Z,70.83
2018-11-13T06:26:32.048Z,68.10
2018-11-13T06:29:02.939Z,72.67
2018-11-13T06:31:33.514Z,73.63
2018-11-13T06:34:04.586Z,87.83
2018-11-13T06:36:35.581Z,86.37
2018-11-13T06:39:09.590Z,74.67
2018-11-13T06:41:40.435Z,73.13
2018-11-13T06:44:10.900Z,66.90
2018-11-13T06:46:42.236Z,83.70
2018-11-13T06:49:12.909Z,85.40
2018-11-13T06:51:43.820Z,72.97
2018-11-13T06:54:25.510Z,75.93
2018-11-13T06:56:56.568Z,66.53
2018-11-13T06:59:27.123Z,63.73
2018-11-13T07:01:58.047Z,61.50
2018-11-13T07:04:28.869Z,65.20
2018-11-13T07:07:00.037Z,72.57
2018-11-13T07:09:31.998Z,59.60
2018-11-13T07:12:03.033Z,67.20
2018-11-13T07:14:33.325Z,70.90
2018-11-13T07:17:04.102Z,59.37
2018-11-13T07:19:35.040Z,59.97
2018-11-13T07:22:06.040Z,59.27
2018-11-13T07:24:36.962Z,62.30
2018-11-13T07:27:09.880Z,61.10
2018-11-13T07:29:40.611Z,67.33
2018-11-13T07:32:11.051Z,59.27
2018-11-13T07:34:41.861Z,59.83
2018-11-13T07:37:12.318Z,53.70
2018-11-13T07:39:43.149Z,60.07
2018-11-13T07:42:13.958Z,57.53
2018-11-13T07:44:44.499Z,55.47
2018-11-13T07:47:15.335Z,53.20
2018-11-13T07:49:46.046Z,52.00
2018-11-13T07:52:17.086Z,56.17
2018-11-13T07:54:47.951Z,51.60
2018-11-13T07:57:18.766Z,53.40
2018-11-13T07:59:49.410Z,43.37
2018-11-13T08:02:19.764Z,48.60
2018-11-13T08:04:49.849Z,50.27
2018-11-13T08:07:20.868Z,52.00
2018-11-13T08:09:51.916Z,50.33
2018-11-13T08:12:22.713Z,54.80
2018-11-13T08:14:53.217Z,49.70
2018-11-13T08:17:24.162Z,48.57
2018-11-13T08:19:55.150Z,45.70
2018-11-13T08:22:26.029Z,49.33
2018-11-13T08:24:57.022Z,48.00
2018-11-13T08:27:27.569Z,47.43
2018-11-13T08:29:58.279Z,92.17
2018-11-13T08:32:28.139Z,112.77
2018-11-13T08:34:59.233Z,47.60
2018-11-13T08:37:29.124Z,47.60
2018-11-13T08:40:00.663Z,48.57
2018-11-13T08:42:31.786Z,45.53
2018-11-13T08:45:02.574Z,49.00
2018-11-13T08:47:32.605Z,50.47
2018-11-13T08:50:03.313Z,57.30
2018-11-13T08:52:33.376Z,48.90
2018-11-13T08:55:04.282Z,50.87
2018-11-13T08:57:35.562Z,43.93
2018-11-13T09:00:07.126Z,94.80
2018-11-13T09:02:37.826Z,45.97
2018-11-13T09:05:09.249Z,55.50
2018-11-13T09:07:40.542Z,44.80
2018-11-13T09:10:12.913Z,42.97
2018-11-13T09:12:44.235Z,42.47
2018-11-13T09:15:17.306Z,44.63
2018-11-13T09:17:47.963Z,40.83
2018-11-13T09:20:19.414Z,114.03
2018-11-13T09:22:49.852Z,49.33
2018-11-13T09:25:21.260Z,49.37
2018-11-13T09:27:52.628Z,67.17
2018-11-13T09:30:23.502Z,77.40
2018-11-13T09:32:54.448Z,51.17
2018-11-13T09:35:25.140Z,48.47
2018-11-13T09:37:56.701Z,52.07
2018-11-13T09:40:28.011Z,57.90
2018-11-13T09:42:58.978Z,57.97
2018-11-13T09:45:29.832Z,54.07
2018-11-13T09:47:59.884Z,50.17
2018-11-13T09:50:30.574Z,52.73
2018-11-13T09:53:02.399Z,47.67
2018-11-13T09:55:33.730Z,51.30
2018-11-13T09:58:05.268Z,47.57
2018-11-13T10:00:36.858Z,52.43
2018-11-13T10:03:08.833Z,50.83
2018-11-13T10:05:39.196Z,51.43
2018-11-13T10:08:10.475Z,55.97
2018-11-13T10:10:41.964Z,61.10
2018-11-13T10:13:12.317Z,62.60
2018-11-13T10:15:43.832Z,59.43
2018-11-13T10:18:15.075Z,59.53
2018-11-13T10:20:46.617Z,63.67
2018-11-13T10:23:17.723Z,62.47
2018-11-13T10:25:49.063Z,67.30
2018-11-13T10:28:20.428Z,60.93
2018-11-13T10:30:51.840Z,63.60
2018-11-13T10:33:23.259Z,63.87
2018-11-13T10:35:54.404Z,67.20
2018-11-13T10:38:25.228Z,64.30
2018-11-13T10:40:56.368Z,62.83
2018-11-13T10:43:27.498Z,65.27
2018-11-13T10:45:58.620Z,64.97
2018-11-13T10:48:29.860Z,65.13
2018-11-13T10:51:01.023Z,65.17
2018-11-13T10:53:32.351Z,67.57
2018-11-13T10:56:03.715Z,57.13
2018-11-13T10:58:34.893Z,57.57
2018-11-13T11:01:11.949Z,49.57
2018-11-13T11:03:44.048Z,49.77
2018-11-13T11:06:15.255Z,43.67
2018-11-13T11:08:47.070Z,38.60
2018-11-13T11:11:18.487Z,47.50
2018-11-13T11:13:49.866Z,40.50
2018-11-13T11:16:21.287Z,37.30
2018-11-13T11:18:52.452Z,36.10
2018-11-13T11:21:23.657Z,37.07
2018-11-13T11:23:54.804Z,44.93
2018-11-13T11:26:26.195Z,41.17
2018-11-13T11:28:57.161Z,38.67
2018-11-13T11:31:28.633Z,43.20
2018-11-13T11:33:59.807Z,43.33
2018-11-13T11:36:31.176Z,42.97
2018-11-13T11:39:02.407Z,46.40
2018-11-13T11:41:33.820Z,41.43
2018-11-13T11:44:05.338Z,48.60
2018-11-13T11:46:36.584Z,37.97
2018-11-13T11:49:08.030Z,42.83
2018-11-13T11:51:39.296Z,45.80
2018-11-13T11:54:10.689Z,41.63
2018-11-13T11:56:41.227Z,40.63
2018-11-13T11:59:12.405Z,46.10
2018-11-13T12:01:43.682Z,42.57
2018-11-13T12:04:15.342Z,43.83
2018-11-13T12:06:46.150Z,47.17
2018-11-13T12:09:16.937Z,53.27
2018-11-13T12:11:47.760Z,50.00
2018-11-13T12:14:18.274Z,54.07
2018-11-13T12:16:49.416Z,53.33
2018-11-13T12:19:20.793Z,61.20
2018-11-13T12:21:51.393Z,56.90
2018-11-13T12:24:23.671Z,61.57
2018-11-13T12:26:54.973Z,51.80
2018-11-13T12:29:26.119Z,57.97
2018-11-13T12:31:58.356Z,53.33
2018-11-13T12:34:29.718Z,47.77
2018-11-13T12:37:00.486Z,44.53
2018-11-13T12:39:31.521Z,39.50
2018-11-13T12:42:02.712Z,38.20
2018-11-13T12:44:33.802Z,36.57
2018-11-13T12:47:05.060Z,34.40
2018-11-13T12:49:36.888Z,36.13
2018-11-13T12:52:13.265Z,36.57
2018-11-13T12:54:45.008Z,44.27
2018-11-13T12:57:16.304Z,28.60
2018-11-13T12:59:47.066Z,22.80
2018-11-13T13:02:17.391Z,28.30
2018-11-13T13:04:48.287Z,28.10
2018-11-13T13:07:19.069Z,35.10
2018-11-13T13:09:50.236Z,26.47
2018-11-13T13:12:21.668Z,24.40
2018-11-13T13:14:53.004Z,29.67
2018-11-13T13:17:24.336Z,29.00
2018-11-13T13:19:54.882Z,28.97
2018-11-13T13:22:26.026Z,29.10
2018-11-13T13:24:57.081Z,25.73
2018-11-13T13:27:28.020Z,70.33
2018-11-13T13:29:59.528Z,30.03
2018-11-13T13:32:30.328Z,26.07
2018-11-13T13:35:01.768Z,23.73
2018-11-13T13:37:33.125Z,89.20
2018-11-13T13:40:04.142Z,23.67
2018-11-13T13:42:34.798Z,31.40
2018-11-13T13:45:06.389Z,19.10
2018-11-13T13:47:37.599Z,23.10
2018-11-13T13:50:08.765Z,18.93
2018-11-13T13:52:40.109Z,46.60
2018-11-13T13:55:11.197Z,22.67
2018-11-13T13:57:42.305Z,24.17
2018-11-13T14:00:14.196Z,22.00
2018-11-13T14:02:45.075Z,23.97
2018-11-13T14:05:15.773Z,22.60
2018-11-13T14:07:47.549Z,28.70
2018-11-13T14:10:18.740Z,23.03
2018-11-13T14:12:50.093Z,29.73
2018-11-13T14:15:21.580Z,25.97
2018-11-13T14:17:52.590Z,26.57
2018-11-13T14:20:23.492Z,45.50
2018-11-13T14:22:54.729Z,25.43
2018-11-13T14:25:25.864Z,24.40
2018-11-13T14:27:56.829Z,24.50
2018-11-13T14:30:29.569Z,49.07
2018-11-13T14:33:02.735Z,29.90
2018-11-13T14:35:33.911Z,25.07
2018-11-13T14:38:05.213Z,32.83
2018-11-13T14:40:39.715Z,32.63
2018-11-13T14:43:11.055Z,38.20
2018-11-13T14:45:42.333Z,36.33
2018-11-13T14:48:13.614Z,42.43
2018-11-13T14:50:44.984Z,42.73
2018-11-13T14:53:15.600Z,35.20
2018-11-13T14:55:47.567Z,36.83
2018-11-13T14:58:18.285Z,153.47
2018-11-13T15:00:49.028Z,66.53
2018-11-13T15:03:19.568Z,45.70
2018-11-13T15:05:49.530Z,45.93
2018-11-13T15:08:20.089Z,105.97
2018-11-13T15:10:52.883Z,70.23
2018-11-13T15:13:24.901Z,46.50
2018-11-13T15:15:55.641Z,41.57
2018-11-13T15:18:26.619Z,39.20
2018-11-13T15:20:57.459Z,43.17
2018-11-13T15:23:27.293Z,39.83
2018-11-13T15:25:58.429Z,40.40
2018-11-13T15:28:29.176Z,42.30
2018-11-13T15:31:00.340Z,36.33
2018-11-13T15:33:33.324Z,36.63
2018-11-13T15:36:07.947Z,38.57
2018-11-13T15:38:39.405Z,37.87
2018-11-13T15:41:10.566Z,36.23
2018-11-13T15:43:41.515Z,41.17
2018-11-13T15:46:12.670Z,38.53
2018-11-13T15:48:44.036Z,39.27
2018-11-13T15:51:15.363Z,38.87
2018-11-13T15:53:46.637Z,41.90
2018-11-13T15:56:18.254Z,38.17
2018-11-13T15:58:49.709Z,46.10
2018-11-13T16:01:20.992Z,51.03
2018-11-13T16:03:52.211Z,43.00
2018-11-13T16:06:23.827Z,49.80
2018-11-13T16:08:55.151Z,45.83
2018-11-13T16:11:25.599Z,40.10
2018-11-13T16:13:55.940Z,58.93
2018-11-13T16:16:26.796Z,52.20
2018-11-13T16:18:56.684Z,62.83
2018-11-13T16:21:28.064Z,54.27
2018-11-13T16:23:59.394Z,59.27
2018-11-13T16:26:30.636Z,64.73
2018-11-13T16:29:01.820Z,59.03
2018-11-13T16:31:33.140Z,40.57
2018-11-13T16:34:03.889Z,36.17
2018-11-13T16:36:35.206Z,36.60
2018-11-13T16:39:10.319Z,32.00
2018-11-13T16:41:41.559Z,27.73
2018-11-13T16:44:12.633Z,21.47
2018-11-13T16:46:42.781Z,22.83
2018-11-13T16:49:13.809Z,18.13
2018-11-13T16:51:45.120Z,20.67
2018-11-13T16:54:16.201Z,21.77
2018-11-13T16:56:47.465Z,26.83
2018-11-13T16:59:19.573Z,23.97
2018-11-13T17:01:51.434Z,21.53
2018-11-13T17:04:22.654Z,29.40
2018-11-13T17:06:54.151Z,30.37
2018-11-13T17:09:25.436Z,30.27
2018-11-13T17:11:56.752Z,30.90
2018-11-13T17:14:27.681Z,27.37
2018-11-13T17:16:58.927Z,31.10
2018-11-13T17:19:30.669Z,29.67
2018-11-13T17:22:02.260Z,22.80
2018-11-13T17:24:34.245Z,27.77
2018-11-13T17:27:05.547Z,23.83
2018-11-13T17:29:36.871Z,25.50
2018-11-13T17:32:08.518Z,20.67
2018-11-13T17:34:39.644Z,23.87
2018-11-13T17:37:10.671Z,24.47
2018-11-13T17:39:41.509Z,19.23
2018-11-13T17:42:12.332Z,25.63
2018-11-13T17:44:43.104Z,21.50
2018-11-13T17:47:14.385Z,22.53
2018-11-13T17:49:45.772Z,23.10
2018-11-13T17:52:17.667Z,26.57
2018-11-13T17:54:48.932Z,25.57
2018-11-13T17:57:20.014Z,23.60
2018-11-13T17:59:51.498Z,21.60
2018-11-13T18:02:22.693Z,23.30
2018-11-13T18:04:54.775Z,18.53
2018-11-13T18:07:26.258Z,19.73
2018-11-13T18:09:56.536Z,18.63
2018-11-13T18:12:27.968Z,24.10
2018-11-13T18:14:59.337Z,20.83
2018-11-13T18:17:30.243Z,18.57
2018-11-13T18:20:01.544Z,22.83
2018-11-13T18:22:32.339Z,20.47
2018-11-13T18:25:04.234Z,17.37
2018-11-13T18:27:35.653Z,21.03
2018-11-13T18:30:12.058Z,17.67
2018-11-13T18:32:42.608Z,22.50
2018-11-13T18:35:17.279Z,18.80
2018-11-13T18:37:49.237Z,23.20
2018-11-13T18:40:20.081Z,22.33
2018-11-13T18:42:51.714Z,26.13
2018-11-13T18:45:25.422Z,20.80
2018-11-13T18:47:56.135Z,16.80
2018-11-13T18:50:28.418Z,18.70
2018-11-13T18:52:59.627Z,18.27
2018-11-13T18:55:30.611Z,16.77
2018-11-13T18:58:02.303Z,17.17
2018-11-13T19:00:35.432Z,17.80
2018-11-13T19:03:06.947Z,20.43
2018-11-13T19:05:37.137Z,17.70
2018-11-13T19:08:08.715Z,20.93
2018-11-13T19:10:42.077Z,18.60
2018-11-13T19:13:23.097Z,19.47
2018-11-13T19:15:56.969Z,18.53
2018-11-13T19:18:28.168Z,16.43
2018-11-13T19:20:59.223Z,14.90
2018-11-13T19:23:30.073Z,15.83
2018-11-13T19:26:01.293Z,14.00
2018-11-13T19:28:32.895Z,12.33
2018-11-13T19:31:04.233Z,12.33
2018-11-13T19:33:35.012Z,14.80
2018-11-13T19:36:06.034Z,12.60
2018-11-13T19:38:36.317Z,15.20
2018-11-13T19:41:07.312Z,15.97
2018-11-13T19:43:38.517Z,15.67
2018-11-13T19:46:09.713Z,16.83
2018-11-13T19:48:40.684Z,12.43
2018-11-13T19:51:11.911Z,14.63
2018-11-13T19:53:43.210Z,12.43
2018-11-13T19:56:14.210Z,13.93
2018-11-13T19:58:45.478Z,13.03
2018-11-13T20:01:16.076Z,14.27
2018-11-13T20:03:47.360Z,14.57
2018-11-13T20:06:17.854Z,18.50
2018-11-13T20:08:48.463Z,14.57
2018-11-13T20:11:19.466Z,13.67
2018-11-13T20:13:51.288Z,11.60
2018-11-13T20:16:22.019Z,14.70
2018-11-13T20:18:53.066Z,16.07
2018-11-13T20:21:24.884Z,12.30
2018-11-13T20:23:56.389Z,11.90
2018-11-13T20:26:27.265Z,9.57
2018-11-13T20:28:58.578Z,11.07
2018-11-13T20:31:29.504Z,11.60
2018-11-13T20:34:00.208Z,10.63
2018-11-13T20:36:31.821Z,9.87
2018-11-13T20:39:03.145Z,10.73
2018-11-13T20:41:33.619Z,13.23
2018-11-13T20:44:04.369Z,13.50
2018-11-13T20:46:35.631Z,11.00
2018-11-13T20:49:06.707Z,12.93
2018-11-13T20:51:37.759Z,12.33
2018-11-13T20:54:09.095Z,14.03
2018-11-13T20:56:39.795Z,11.37
2018-11-13T20:59:10.480Z,14.83
2018-11-13T21:01:41.530Z,12.00
2018-11-13T21:04:12.179Z,14.77
2018-11-13T21:06:43.703Z,9.53
2018-11-13T21:09:14.791Z,13.70
2018-11-13T21:11:46.155Z,12.93
2018-11-13T21:14:18.146Z,12.83
2018-11-13T21:16:49.664Z,11.40
2018-11-13T21:19:20.755Z,14.73
2018-11-13T21:21:52.020Z,14.70
2018-11-13T21:24:23.531Z,15.00
2018-11-13T21:26:55.350Z,16.13
2018-11-13T21:29:27.943Z,16.37
2018-11-13T21:31:59.498Z,13.63
2018-11-13T21:34:30.889Z,12.47
2018-11-13T21:37:33.327Z,13.17
2018-11-13T21:40:04.690Z,15.83
2018-11-13T21:42:35.465Z,25.10
2018-11-13T21:45:06.956Z,13.37
2018-11-13T21:47:37.083Z,10.37
2018-11-13T21:50:09.584Z,11.10
2018-11-13T21:52:40.506Z,8.17
2018-11-13T21:55:12.848Z,8.20
2018-11-13T21:57:44.105Z,8.53
2018-11-13T22:00:21.063Z,9.30
2018-11-13T22:02:54.191Z,8.90
2018-11-13T22:05:26.010Z,9.57
2018-11-13T22:07:56.815Z,11.10
2018-11-13T22:10:27.052Z,7.50
2018-11-13T22:12:58.265Z,9.87
2018-11-13T22:15:30.047Z,8.93
2018-11-13T22:18:01.786Z,10.70
2018-11-13T22:20:32.272Z,13.07
2018-11-13T22:23:03.424Z,12.93
2018-11-13T22:25:34.466Z,12.00
2018-11-13T22:28:05.558Z,12.20
2018-11-13T22:30:36.246Z,10.90
2018-11-13T22:33:06.356Z,11.30
2018-11-13T22:35:36.502Z,11.87
2018-11-13T22:38:07.182Z,8.50
2018-11-13T22:40:37.838Z,8.10
2018-11-13T22:43:08.934Z,9.37
2018-11-13T22:45:40.100Z,10.97
2018-11-13T22:48:11.108Z,10.53
2018-11-13T22:50:42.191Z,7.27
2018-11-13T22:53:13.477Z,9.30
2018-11-13T22:55:44.392Z,7.77
2018-11-13T22:58:15.777Z,10.70
2018-11-13T23:00:48.328Z,6.87
2018-11-13T23:03:20.115Z,8.57
2018-11-13T23:05:51.685Z,8.57
2018-11-13T23:08:22.735Z,9.60
2018-11-13T23:10:54.196Z,13.03
2018-11-13T23:13:25.292Z,10.40
2018-11-13T23:15:57.077Z,8.83
2018-11-13T23:18:28.269Z,7.07
2018-11-13T23:20:59.576Z,9.07
2018-11-13T23:23:30.884Z,8.47
2018-11-13T23:26:02.019Z,7.67
2018-11-13T23:28:32.892Z,9.20
2018-11-13T23:31:03.976Z,8.53
2018-11-13T23:33:35.477Z,7.73
2018-11-13T23:36:06.652Z,11.37
2018-11-13T23:38:37.665Z,7.17
2018-11-13T23:41:08.589Z,6.63
2018-11-13T23:43:39.780Z,8.97
2018-11-13T23:46:10.792Z,7.33
2018-11-13T23:48:41.974Z,7.00
2018-11-13T23:51:12.947Z,10.37
2018-11-13T23:53:43.970Z,7.37
2018-11-13T23:56:14.791Z,8.20
2018-11-13T23:58:45.601Z,7.80
